createdAt,value
2019-04-01T00:00:34.681Z,72.00
2019-04-01T00:03:03.029Z,72.90
2019-04-01T00:05:31.054Z,71.30
2019-04-01T00:07:58.990Z,73.70
2019-04-01T00:10:29.366Z,73.20
2019-04-01T00:13:00.053Z,72.30
2019-04-01T00:15:28.793Z,71.80
2019-04-01T00:17:56.610Z,71.50
2019-04-01T00:20:24.876Z,71.00
2019-04-01T00:22:56.353Z,71.00
2019-04-01T00:25:33.508Z,71.30
2019-04-01T00:28:03.458Z,71.50
2019-04-01T00:33:01.914Z,71.50
2019-04-01T00:35:29.962Z,71.40
2019-04-01T00:37:57.957Z,72.10
2019-04-01T00:40:28.546Z,71.90
2019-04-01T00:43:11.532Z,71.40
2019-04-01T00:45:40.073Z,73.80
2019-04-01T00:48:08.094Z,71.80
2019-04-01T00:50:36.575Z,74.80
2019-04-01T00:55:37.801Z,71.50
2019-04-01T00:58:11.620Z,71.60
2019-04-01T01:00:39.987Z,71.50
2019-04-01T01:03:08.841Z,71.30
2019-04-01T01:05:37.155Z,71.40
2019-04-01T01:08:05.188Z,71.50
2019-04-01T01:10:33.261Z,71.00
2019-04-01T01:13:01.556Z,71.00
2019-04-01T01:15:42.171Z,71.50
2019-04-01T01:18:21.288Z,72.10
2019-04-01T01:20:49.462Z,73.00
2019-04-01T01:23:20.351Z,74.30
2019-04-01T01:26:01.759Z,75.50
2019-04-01T01:28:31.059Z,75.30
2019-04-01T01:31:02.161Z,75.70
2019-04-01T01:33:30.314Z,77.00
2019-04-01T01:36:04.431Z,77.00
2019-04-01T01:41:01.047Z,78.90
2019-04-01T01:43:28.986Z,79.00
2019-04-01T01:45:57.237Z,79.20
2019-04-01T01:48:27.774Z,79.40
2019-04-01T01:51:01.348Z,79.50
2019-04-01T01:53:29.678Z,79.50
2019-04-01T01:56:02.553Z,80.40
2019-04-01T01:58:33.153Z,79.60
2019-04-01T02:03:29.537Z,80.00
2019-04-01T02:05:57.690Z,81.50
2019-04-01T02:08:25.945Z,79.90
2019-04-01T02:10:54.218Z,79.90
2019-04-01T02:13:22.586Z,80.00
2019-04-01T02:18:20.913Z,80.00
2019-04-01T02:20:49.848Z,82.40
2019-04-01T02:23:18.219Z,81.10
2019-04-01T02:30:42.697Z,81.40
2019-04-01T02:35:39.549Z,81.80
2019-04-01T02:38:10.316Z,82.50
2019-04-01T02:40:38.502Z,82.60
2019-04-01T02:43:07.993Z,81.30
2019-04-01T02:45:41.674Z,81.50
2019-04-01T02:48:10.531Z,81.70
2019-04-01T02:50:47.268Z,84.10
2019-04-01T02:53:17.691Z,81.90
2019-04-01T02:55:51.194Z,82.00
2019-04-01T02:58:21.580Z,82.00
2019-04-01T03:00:52.936Z,82.30
2019-04-01T03:03:26.988Z,82.20
2019-04-01T03:05:55.123Z,81.90
2019-04-01T03:08:33.571Z,82.60
2019-04-01T03:11:10.201Z,84.90
2019-04-01T03:13:37.259Z,82.60
2019-04-01T03:16:07.050Z,82.60
2019-04-01T03:18:34.945Z,82.70
2019-04-01T03:21:03.139Z,82.90
2019-04-01T03:23:37.668Z,83.20
2019-04-01T03:26:02.253Z,84.40
2019-04-01T03:55:27.971Z,78.50
2019-04-01T03:57:59.094Z,78.30
2019-04-01T04:00:27.649Z,78.20
2019-04-01T04:02:55.897Z,78.10
2019-04-01T04:05:23.853Z,77.60
2019-04-01T04:07:51.929Z,81.30
2019-04-01T04:10:20.260Z,76.10
2019-04-01T04:12:50.844Z,79.70
2019-04-01T04:15:18.688Z,76.00
2019-04-01T04:17:46.546Z,77.90
2019-04-01T04:20:14.583Z,76.50
2019-04-01T04:22:42.450Z,77.10
2019-04-01T04:25:14.367Z,77.20
2019-04-01T04:27:44.012Z,77.10
2019-04-01T04:30:16.790Z,76.90
2019-04-01T04:32:44.765Z,76.70
2019-04-01T04:35:12.964Z,77.00
2019-04-01T04:37:40.950Z,76.90
2019-04-01T04:40:09.077Z,77.20
2019-04-01T04:42:37.112Z,78.80
2019-04-01T04:45:07.299Z,78.80
2019-04-01T04:47:35.431Z,76.70
2019-04-01T04:50:06.286Z,79.00
2019-04-01T04:52:34.251Z,78.50
2019-04-01T04:55:02.532Z,76.00
2019-04-01T04:57:30.516Z,75.90
2019-04-01T04:59:58.598Z,77.10
2019-04-01T05:02:26.912Z,75.50
2019-04-01T05:04:54.727Z,75.00
2019-04-01T05:07:24.063Z,77.30
2019-04-01T05:09:51.736Z,76.30
2019-04-01T05:12:19.680Z,76.00
2019-04-01T05:14:49.954Z,73.30
2019-04-01T05:17:19.008Z,72.20
2019-04-01T05:19:46.921Z,72.50
2019-04-01T05:22:15.138Z,72.00
2019-04-01T05:24:51.480Z,71.30
2019-04-01T05:27:22.966Z,71.80
2019-04-01T05:29:53.542Z,70.00
2019-04-01T05:32:21.759Z,69.70
2019-04-01T05:34:52.241Z,70.30
2019-04-01T05:37:20.250Z,71.20
2019-04-01T05:39:52.702Z,73.20
2019-04-01T05:42:20.784Z,72.10
2019-04-01T05:44:48.871Z,73.30
2019-04-01T05:47:19.547Z,70.50
2019-04-01T05:49:47.823Z,71.40
2019-04-01T05:52:15.861Z,72.30
2019-04-01T05:54:44.051Z,69.60
2019-04-01T05:57:13.047Z,69.20
2019-04-01T05:59:42.217Z,71.80
2019-04-01T06:02:10.717Z,70.70
2019-04-01T06:04:40.396Z,70.20
2019-04-01T06:07:08.287Z,71.80
2019-04-01T06:09:36.416Z,69.10
2019-04-01T06:12:04.586Z,68.00
2019-04-01T06:14:32.984Z,67.20
2019-04-01T06:17:00.824Z,69.60
2019-04-01T06:19:29.064Z,68.30
2019-04-01T06:21:57.146Z,71.20
2019-04-01T06:24:25.058Z,67.30
2019-04-01T06:26:53.197Z,66.60
2019-04-01T06:29:20.961Z,67.80
2019-04-01T06:31:48.908Z,70.10
2019-04-01T06:34:16.682Z,65.50
2019-04-01T06:36:44.504Z,65.40
2019-04-01T06:39:12.270Z,68.00
2019-04-01T06:41:40.226Z,66.90
2019-04-01T06:46:35.995Z,65.30
2019-04-01T06:49:03.928Z,65.30
2019-04-01T06:54:02.329Z,64.50
2019-04-01T06:56:30.282Z,63.80
2019-04-01T06:58:59.258Z,63.60
2019-04-01T07:01:27.661Z,62.90
2019-04-01T07:06:23.870Z,61.70
2019-04-01T07:08:54.023Z,60.20
2019-04-01T07:11:22.136Z,60.20
2019-04-01T07:16:17.787Z,58.60
2019-04-01T07:18:45.828Z,57.40
2019-04-01T07:21:21.628Z,54.60
2019-04-01T07:23:50.835Z,53.60
2019-04-01T07:26:19.483Z,52.70
2019-04-01T07:28:50.123Z,54.70
2019-04-01T07:31:18.701Z,53.90
2019-04-01T07:33:46.829Z,53.50
2019-04-01T07:36:14.454Z,52.80
2019-04-01T07:38:42.561Z,52.50
2019-04-01T07:41:10.252Z,52.40
2019-04-01T07:43:38.325Z,51.90
2019-04-01T07:46:09.325Z,51.20
2019-04-01T07:48:40.847Z,52.90
2019-04-01T07:51:09.191Z,50.70
2019-04-01T07:53:38.675Z,51.10
2019-04-01T07:56:06.462Z,54.60
2019-04-01T07:58:37.632Z,50.80
2019-04-01T08:01:05.650Z,51.20
2019-04-01T08:03:34.641Z,50.20
2019-04-01T08:06:02.779Z,51.70
2019-04-01T08:08:31.442Z,50.10
2019-04-01T08:10:59.252Z,50.00
2019-04-01T08:13:26.970Z,52.10
2019-04-01T08:15:54.815Z,51.90
2019-04-01T08:18:22.554Z,51.90
2019-04-01T08:21:32.697Z,48.20
2019-04-01T08:25:01.477Z,49.70
2019-04-01T08:27:37.863Z,48.30
2019-04-01T08:30:18.294Z,47.50
2019-04-01T08:32:42.388Z,47.30
2019-04-01T08:35:13.696Z,47.70
2019-04-01T08:37:50.056Z,48.40
2019-04-01T08:40:29.035Z,49.30
2019-04-01T08:43:01.742Z,47.70
2019-04-01T08:45:32.782Z,46.60
2019-04-01T08:48:03.010Z,46.50
2019-04-01T08:50:30.617Z,47.70
2019-04-01T08:52:58.257Z,48.10
2019-04-01T08:55:26.619Z,44.70
2019-04-01T08:57:55.851Z,45.50
2019-04-01T09:00:23.708Z,45.10
2019-04-01T09:02:51.387Z,46.40
2019-04-01T09:05:18.965Z,45.70
2019-04-01T09:07:46.814Z,46.00
2019-04-01T09:10:14.474Z,46.10
2019-04-01T09:12:42.802Z,46.20
2019-04-01T09:15:15.727Z,45.50
2019-04-01T09:17:46.871Z,44.50
2019-04-01T09:20:14.581Z,43.80
2019-04-01T09:22:42.204Z,43.80
2019-04-01T09:25:09.857Z,43.70
2019-04-01T09:27:37.538Z,44.80
2019-04-01T09:30:08.519Z,44.80
2019-04-01T09:32:36.153Z,44.20
2019-04-01T09:35:04.265Z,44.30
2019-04-01T09:37:31.979Z,43.70
2019-04-01T09:39:59.576Z,43.50
2019-04-01T09:42:27.194Z,41.50
2019-04-01T09:44:54.759Z,42.00
2019-04-01T09:47:22.559Z,42.30
2019-04-01T09:49:50.184Z,42.90
2019-04-01T09:52:20.660Z,43.00
2019-04-01T09:54:48.350Z,42.60
2019-04-01T09:57:18.315Z,43.70
2019-04-01T09:59:45.396Z,42.40
2019-04-01T10:02:14.171Z,42.40
2019-04-01T10:04:41.833Z,42.40
2019-04-01T10:07:10.609Z,41.70
2019-04-01T10:09:38.191Z,41.00
2019-04-01T10:12:06.011Z,42.00
2019-04-01T10:14:34.102Z,42.50
2019-04-01T10:17:01.904Z,43.50
2019-04-01T10:19:29.493Z,41.50
2019-04-01T10:21:57.061Z,43.10
2019-04-01T10:24:33.755Z,40.90
2019-04-01T10:27:02.907Z,40.50
2019-04-01T10:29:30.482Z,41.00
2019-04-01T10:31:58.132Z,41.80
2019-04-01T10:34:25.803Z,41.90
2019-04-01T10:36:53.628Z,42.20
2019-04-01T10:39:22.009Z,42.70
2019-04-01T10:41:50.143Z,42.90
2019-04-01T10:44:19.973Z,42.40
2019-04-01T10:46:47.612Z,41.70
2019-04-01T10:49:15.222Z,42.00
2019-04-01T10:51:43.032Z,42.50
2019-04-01T10:54:10.719Z,41.20
2019-04-01T10:56:38.369Z,40.80
2019-04-01T10:59:06.010Z,40.70
2019-04-01T11:01:33.881Z,40.80
2019-04-01T11:04:01.786Z,39.90
2019-04-01T11:06:29.616Z,40.20
2019-04-01T11:08:57.355Z,41.60
2019-04-01T11:11:25.175Z,41.00
2019-04-01T11:13:54.042Z,40.70
2019-04-01T11:16:22.177Z,40.30
2019-04-01T11:18:51.840Z,41.10
2019-04-01T11:21:23.551Z,39.90
2019-04-01T11:23:51.112Z,41.90
2019-04-01T11:26:18.746Z,40.70
2019-04-01T11:28:46.392Z,40.10
2019-04-01T11:31:14.089Z,38.70
2019-04-01T11:33:41.798Z,38.30
2019-04-01T11:36:10.574Z,38.80
2019-04-01T11:38:38.572Z,38.90
2019-04-01T11:41:06.202Z,39.10
2019-04-01T11:43:35.684Z,38.80
2019-04-01T11:46:03.871Z,38.20
2019-04-01T11:48:34.300Z,38.50
2019-04-01T11:51:02.313Z,37.60
2019-04-01T11:53:30.865Z,37.90
2019-04-01T11:55:58.954Z,38.80
2019-04-01T11:58:26.891Z,38.80
2019-04-01T12:00:55.026Z,39.00
2019-04-01T12:03:22.659Z,39.00
2019-04-01T12:05:52.201Z,39.20
2019-04-01T12:08:20.504Z,39.20
2019-04-01T12:10:48.695Z,39.10
2019-04-01T12:13:19.263Z,39.90
2019-04-01T12:15:48.826Z,37.90
2019-04-01T12:18:20.874Z,37.10
2019-04-01T12:20:48.605Z,37.80
2019-04-01T12:23:16.329Z,37.20
2019-04-01T12:25:44.027Z,37.50
2019-04-01T12:28:11.743Z,38.00
2019-04-01T12:30:39.492Z,38.40
2019-04-01T12:33:07.052Z,37.20
2019-04-01T12:35:36.151Z,37.00
2019-04-01T12:38:04.379Z,36.10
2019-04-01T12:40:32.155Z,36.30
2019-04-01T12:42:59.837Z,36.50
2019-04-01T12:47:55.179Z,37.20
2019-04-01T12:50:22.869Z,37.40
2019-04-01T12:52:50.550Z,36.60
2019-04-01T12:55:18.365Z,36.10
2019-04-01T12:57:48.391Z,36.40
2019-04-01T13:00:16.874Z,36.60
2019-04-01T13:02:44.786Z,35.40
2019-04-01T13:05:12.885Z,36.90
2019-04-01T13:07:40.848Z,36.40
2019-04-01T13:10:10.558Z,35.70
2019-04-01T13:12:39.364Z,34.90
2019-04-01T13:15:07.217Z,35.40
2019-04-01T13:17:35.063Z,35.60
2019-04-01T13:20:02.779Z,35.00
2019-04-01T13:22:30.525Z,34.90
2019-04-01T13:24:58.159Z,35.10
2019-04-01T13:27:26.232Z,36.00
2019-04-01T13:29:53.916Z,37.10
2019-04-01T13:32:21.569Z,38.50
2019-04-01T13:34:49.274Z,37.20
2019-04-01T13:37:19.470Z,36.20
2019-04-01T13:39:47.223Z,36.80
2019-04-01T13:42:14.985Z,38.40
2019-04-01T13:44:43.276Z,37.80
2019-04-01T13:47:10.865Z,37.40
2019-04-01T13:49:39.641Z,38.40
2019-04-01T13:52:07.367Z,38.90
2019-04-01T13:54:35.082Z,37.40
2019-04-01T13:57:02.813Z,38.60
2019-04-01T13:59:30.755Z,38.00
2019-04-01T14:01:59.569Z,38.80
2019-04-01T14:04:27.482Z,38.10
2019-04-01T14:06:55.511Z,38.40
2019-04-01T14:09:23.278Z,38.40
2019-04-01T14:11:51.017Z,39.50
2019-04-01T14:14:18.683Z,40.20
2019-04-01T14:16:46.527Z,39.10
2019-04-01T14:19:17.820Z,39.20
2019-04-01T14:21:45.491Z,39.10
2019-04-01T14:24:13.587Z,38.70
2019-04-01T14:26:42.732Z,38.30
2019-04-01T14:29:16.833Z,38.70
2019-04-01T14:31:46.053Z,38.60
2019-04-01T14:34:22.970Z,40.40
2019-04-01T14:36:43.828Z,38.50
2019-04-01T14:39:11.777Z,39.00
2019-04-01T14:41:39.552Z,38.80
2019-04-01T14:46:38.323Z,39.00
2019-04-01T14:51:37.156Z,39.60
2019-04-01T14:56:34.337Z,39.60
2019-04-01T14:59:02.262Z,40.00
2019-04-01T15:04:05.023Z,40.30
2019-04-01T15:06:33.029Z,40.60
2019-04-01T15:09:00.880Z,41.00
2019-04-01T15:11:31.344Z,40.60
2019-04-01T15:14:00.634Z,40.60
2019-04-01T15:16:28.440Z,42.20
2019-04-01T15:18:57.070Z,41.10
2019-04-01T15:21:34.125Z,40.80
2019-04-01T15:24:04.493Z,41.70
2019-04-01T15:26:33.838Z,42.00
2019-04-01T15:29:01.933Z,44.00
2019-04-01T15:31:29.734Z,42.40
2019-04-01T15:33:57.889Z,41.00
2019-04-01T15:36:30.838Z,41.00
2019-04-01T15:39:17.653Z,41.10
2019-04-01T15:41:45.798Z,41.60
2019-04-01T15:44:13.405Z,42.70
2019-04-01T15:46:51.652Z,41.30
2019-04-01T15:52:28.405Z,40.50
2019-04-01T15:54:57.937Z,40.70
2019-04-01T15:57:26.356Z,40.70
2019-04-01T15:59:55.461Z,42.40
2019-04-01T16:02:23.321Z,42.30
2019-04-01T16:04:51.158Z,40.60
2019-04-01T16:07:22.363Z,42.00
2019-04-01T16:09:48.730Z,42.40
2019-04-01T16:12:18.491Z,41.90
2019-04-01T16:14:46.449Z,40.90
2019-04-01T16:17:14.383Z,41.60
2019-04-01T16:19:42.174Z,40.20
2019-04-01T16:22:09.847Z,39.60
2019-04-01T16:24:38.222Z,38.80
2019-04-01T16:27:06.304Z,38.70
2019-04-01T16:29:34.330Z,38.00
2019-04-01T16:32:02.296Z,39.60
2019-04-01T16:34:30.571Z,38.30
2019-04-01T16:37:06.873Z,40.90
2019-04-01T16:39:34.632Z,38.90
2019-04-01T16:42:02.335Z,40.10
2019-04-01T16:44:30.659Z,40.30
2019-04-01T16:46:58.243Z,41.70
2019-04-01T16:49:28.111Z,40.30
2019-04-01T16:51:56.107Z,41.10
2019-04-01T16:54:37.707Z,41.10
2019-04-01T16:57:14.121Z,41.70
2019-04-01T16:59:46.949Z,41.70
2019-04-01T17:07:19.563Z,43.90
2019-04-01T17:09:47.792Z,44.40
2019-04-01T17:12:15.650Z,44.40
2019-04-01T17:14:43.667Z,44.90
2019-04-01T17:17:12.205Z,46.90
2019-04-01T17:19:40.725Z,45.20
2019-04-01T17:22:11.292Z,45.50
2019-04-01T17:24:38.540Z,46.30
2019-04-01T17:27:10.919Z,46.40
2019-04-01T17:29:38.975Z,47.10
2019-04-01T17:32:06.567Z,47.40
2019-04-01T17:34:36.320Z,47.60
2019-04-01T17:37:04.200Z,48.20
2019-04-01T17:39:32.259Z,48.60
2019-04-01T17:42:02.229Z,49.40
2019-04-01T17:45:15.182Z,49.80
2019-04-01T17:47:43.059Z,50.70
2019-04-01T17:50:12.059Z,51.00
2019-04-01T17:52:40.226Z,50.80
2019-04-01T17:55:08.569Z,50.70
2019-04-01T17:57:40.377Z,51.30
2019-04-01T18:00:13.146Z,51.80
2019-04-01T18:02:41.004Z,51.90
2019-04-01T18:07:38.698Z,51.30
2019-04-01T18:10:08.421Z,51.70
2019-04-01T18:12:36.275Z,51.60
2019-04-01T18:15:04.469Z,51.90
2019-04-01T18:17:33.490Z,52.10
2019-04-01T18:20:01.561Z,52.00
2019-04-01T18:22:29.623Z,52.40
2019-04-01T18:24:57.524Z,52.70
2019-04-01T18:28:47.751Z,52.60
2019-04-01T18:34:28.095Z,53.20
2019-04-01T18:39:57.008Z,53.00
2019-04-01T18:42:26.498Z,52.70
2019-04-01T18:44:54.101Z,52.50
2019-04-01T18:47:29.561Z,52.20
2019-04-01T18:49:57.261Z,52.30
2019-04-01T18:52:38.176Z,52.40
2019-04-01T18:55:07.796Z,52.10
2019-04-01T19:22:42.131Z,54.10
2019-04-01T19:25:10.820Z,54.70
2019-04-01T19:27:38.964Z,54.70
2019-04-01T19:30:08.711Z,55.40
2019-04-01T19:32:38.331Z,54.50
2019-04-01T19:35:09.412Z,54.60
2019-04-01T19:37:37.976Z,56.10
2019-04-01T19:40:10.161Z,54.90
2019-04-01T19:45:12.326Z,55.20
2019-04-01T19:47:50.419Z,55.70
2019-04-01T19:50:20.938Z,56.60
2019-04-01T19:52:50.043Z,57.10
2019-04-01T19:55:20.587Z,58.70
2019-04-01T19:57:49.780Z,59.30
2019-04-01T20:00:27.755Z,59.60
2019-04-01T20:02:47.526Z,60.80
2019-04-01T20:05:15.433Z,60.50
2019-04-01T20:07:44.648Z,60.40
2019-04-01T20:10:13.115Z,60.60
2019-04-01T20:12:41.601Z,62.70
2019-04-01T20:15:11.910Z,63.50
2019-04-01T20:17:40.551Z,62.50
2019-04-01T20:20:08.717Z,62.10
2019-04-01T20:22:36.557Z,62.70
2019-04-01T20:25:05.178Z,63.10
2019-04-01T20:27:33.457Z,63.00
2019-04-01T20:30:04.835Z,63.30
2019-04-01T20:32:32.704Z,63.40
2019-04-01T20:35:00.523Z,64.70
2019-04-01T20:37:29.325Z,64.00
2019-04-01T20:39:57.385Z,64.90
2019-04-01T20:42:25.087Z,65.40
2019-04-01T20:45:05.466Z,65.10
2019-04-01T20:47:36.246Z,66.50
2019-04-01T20:50:05.668Z,66.30
2019-04-01T20:52:33.435Z,66.10
2019-04-01T20:55:01.078Z,66.80
2019-04-01T20:57:28.712Z,68.20
2019-04-01T20:59:56.596Z,67.80
2019-04-01T21:02:24.161Z,68.70
2019-04-01T21:04:52.693Z,68.60
2019-04-01T21:07:20.487Z,68.50
2019-04-01T21:09:48.285Z,69.30
2019-04-01T21:12:17.013Z,68.70
2019-04-01T21:14:44.528Z,68.50
2019-04-01T21:17:12.136Z,68.80
2019-04-01T21:19:39.664Z,68.90
2019-04-01T21:22:08.077Z,69.10
2019-04-01T21:24:35.738Z,69.00
2019-04-01T21:27:03.325Z,69.20
2019-04-01T21:29:30.997Z,69.80
2019-04-01T21:31:58.603Z,70.10
2019-04-01T21:34:26.153Z,70.60
2019-04-01T21:36:53.758Z,71.10
2019-04-01T21:51:28.678Z,70.00
2019-04-01T23:20:34.634Z,75.80
2019-04-01T23:24:07.054Z,76.10
